sensor_id;sensor_type;location;lat;lon;timestamp;temperature;humidity
9311;DHT22;4694;52.464;13.480;2024-01-10T00:02:00;-7.50;99.90
9311;DHT22;4694;52.464;13.480;2024-01-10T00:04:27;-7.50;99.90
9311;DHT22;4694;52.464;13.480;2024-01-10T00:06:55;-7.50;99.90
9311;DHT22;4694;52.464;13.480;2024-01-10T00:09:22;-7.50;99.90
9311;DHT22;4694;52.464;13.480;2024-01-10T00:11:48;-7.40;99.90
9311;DHT22;4694;52.464;13.480;2024-01-10T00:14:15;-7.50;99.90
9311;DHT22;4694;52.464;13.480;2024-01-10T00:16:42;-7.50;99.90
9311;DHT22;4694;52.464;13.480;2024-01-10T00:19:08;-7.50;99.90
9311;DHT22;4694;52.464;13.480;2024-01-10T00:21:35;-7.50;99.90
9311;DHT22;4694;52.464;13.480;2024-01-10T00:24:04;-7.50;99.90
9311;DHT22;4694;52.464;13.480;2024-01-10T00:26:30;-7.60;99.90
9311;DHT22;4694;52.464;13.480;2024-01-10T00:28:57;-7.60;99.90
9311;DHT22;4694;52.464;13.480;2024-01-10T00:31:24;-7.60;99.90
9311;DHT22;4694;52.464;13.480;2024-01-10T00:33:51;-7.60;99.90
9311;DHT22;4694;52.464;13.480;2024-01-10T00:36:17;-7.60;99.90
9311;DHT22;4694;52.464;13.480;2024-01-10T00:38:44;-7.60;99.90
9311;DHT22;4694;52.464;13.480;2024-01-10T00:41:12;-7.60;99.90
9311;DHT22;4694;52.464;13.480;2024-01-10T00:43:40;-7.60;99.90
9311;DHT22;4694;52.464;13.480;2024-01-10T00:46:07;-7.60;99.90
9311;DHT22;4694;52.464;13.480;2024-01-10T00:48:34;-7.60;99.90
9311;DHT22;4694;52.464;13.480;2024-01-10T00:51:01;-7.60;99.90
9311;DHT22;4694;52.464;13.480;2024-01-10T00:53:27;-7.70;99.90
9311;DHT22;4694;52.464;13.480;2024-01-10T00:55:54;-7.70;99.90
9311;DHT22;4694;52.464;13.480;2024-01-10T00:58:22;-7.70;99.90
9311;DHT22;4694;52.464;13.480;2024-01-10T01:00:49;-7.70;99.90
9311;DHT22;4694;52.464;13.480;2024-01-10T01:03:15;-7.70;99.90
9311;DHT22;4694;52.464;13.480;2024-01-10T01:05:42;-7.70;99.90
9311;DHT22;4694;52.464;13.480;2024-01-10T01:08:08;-7.70;99.90
9311;DHT22;4694;52.464;13.480;2024-01-10T01:10:35;-7.70;99.90
9311;DHT22;4694;52.464;13.480;2024-01-10T01:13:02;-7.70;99.90
9311;DHT22;4694;52.464;13.480;2024-01-10T01:15:30;-7.60;99.90
9311;DHT22;4694;52.464;13.480;2024-01-10T01:17:57;-7.50;99.90
9311;DHT22;4694;52.464;13.480;2024-01-10T01:20:23;-7.60;99.90
9311;DHT22;4694;52.464;13.480;2024-01-10T01:22:50;-7.60;99.90
9311;DHT22;4694;52.464;13.480;2024-01-10T01:25:18;-7.60;99.90
9311;DHT22;4694;52.464;13.480;2024-01-10T01:27:45;-7.60;99.90
9311;DHT22;4694;52.464;13.480;2024-01-10T01:30:11;-7.60;99.90
9311;DHT22;4694;52.464;13.480;2024-01-10T01:32:40;-7.70;99.90
9311;DHT22;4694;52.464;13.480;2024-01-10T01:35:06;-7.70;99.90
9311;DHT22;4694;52.464;13.480;2024-01-10T01:37:33;-7.70;99.90
9311;DHT22;4694;52.464;13.480;2024-01-10T01:40:00;-7.70;99.90
9311;DHT22;4694;52.464;13.480;2024-01-10T01:42:26;-7.70;99.90
9311;DHT22;4694;52.464;13.480;2024-01-10T01:44:53;-7.70;99.90
9311;DHT22;4694;52.464;13.480;2024-01-10T01:47:20;-7.60;99.90
9311;DHT22;4694;52.464;13.480;2024-01-10T01:49:48;-7.70;99.90
9311;DHT22;4694;52.464;13.480;2024-01-10T01:52:15;-7.50;99.90
9311;DHT22;4694;52.464;13.480;2024-01-10T01:54:42;-7.60;99.90
9311;DHT22;4694;52.464;13.480;2024-01-10T01:57:09;-7.60;99.90
9311;DHT22;4694;52.464;13.480;2024-01-10T01:59:35;-7.60;99.90
9311;DHT22;4694;52.464;13.480;2024-01-10T02:02:03;-7.60;99.90
9311;DHT22;4694;52.464;13.480;2024-01-10T02:04:31;-7.60;99.90
9311;DHT22;4694;52.464;13.480;2024-01-10T02:06:59;-7.60;99.90
9311;DHT22;4694;52.464;13.480;2024-01-10T02:09:26;-7.60;99.90
9311;DHT22;4694;52.464;13.480;2024-01-10T02:11:53;-7.60;99.90
9311;DHT22;4694;52.464;13.480;2024-01-10T02:14:20;-7.60;99.90
9311;DHT22;4694;52.464;13.480;2024-01-10T02:16:47;-7.60;99.90
9311;DHT22;4694;52.464;13.480;2024-01-10T02:19:20;-7.60;99.90
9311;DHT22;4694;52.464;13.480;2024-01-10T02:21:47;-7.70;99.90
9311;DHT22;4694;52.464;13.480;2024-01-10T02:24:15;-7.70;99.90
9311;DHT22;4694;52.464;13.480;2024-01-10T02:26:43;-7.70;99.90
9311;DHT22;4694;52.464;13.480;2024-01-10T02:29:10;-7.70;99.90
9311;DHT22;4694;52.464;13.480;2024-01-10T02:31:37;-7.70;99.90
9311;DHT22;4694;52.464;13.480;2024-01-10T02:34:03;-7.80;99.90
9311;DHT22;4694;52.464;13.480;2024-01-10T02:36:30;-7.80;99.90
9311;DHT22;4694;52.464;13.480;2024-01-10T02:38:57;-7.80;99.90
9311;DHT22;4694;52.464;13.480;2024-01-10T02:41:23;-7.80;99.90
9311;DHT22;4694;52.464;13.480;2024-01-10T02:43:51;-7.80;99.90
9311;DHT22;4694;52.464;13.480;2024-01-10T02:46:18;-7.80;99.90
9311;DHT22;4694;52.464;13.480;2024-01-10T02:48:48;-7.80;99.90
9311;DHT22;4694;52.464;13.480;2024-01-10T02:51:14;-7.80;99.90
9311;DHT22;4694;52.464;13.480;2024-01-10T02:53:41;-7.80;99.90
9311;DHT22;4694;52.464;13.480;2024-01-10T02:56:07;-7.80;99.90
9311;DHT22;4694;52.464;13.480;2024-01-10T02:58:34;-7.80;99.90
9311;DHT22;4694;52.464;13.480;2024-01-10T03:01:02;-7.80;99.90
9311;DHT22;4694;52.464;13.480;2024-01-10T03:03:29;-7.80;99.90
9311;DHT22;4694;52.464;13.480;2024-01-10T03:05:55;-7.80;99.90
9311;DHT22;4694;52.464;13.480;2024-01-10T03:08:22;-7.80;99.90
9311;DHT22;4694;52.464;13.480;2024-01-10T03:10:49;-7.80;99.90
9311;DHT22;4694;52.464;13.480;2024-01-10T03:13:15;-7.80;99.90
9311;DHT22;4694;52.464;13.480;2024-01-10T03:15:42;-7.80;99.90
9311;DHT22;4694;52.464;13.480;2024-01-10T03:18:10;-7.80;99.90
9311;DHT22;4694;52.464;13.480;2024-01-10T03:20:36;-7.80;99.90
9311;DHT22;4694;52.464;13.480;2024-01-10T03:23:03;-7.80;99.90
9311;DHT22;4694;52.464;13.480;2024-01-10T03:25:30;-7.80;99.90
9311;DHT22;4694;52.464;13.480;2024-01-10T03:27:56;-7.80;99.90
9311;DHT22;4694;52.464;13.480;2024-01-10T03:30:23;-7.80;99.90
9311;DHT22;4694;52.464;13.480;2024-01-10T03:32:50;-7.80;99.90
9311;DHT22;4694;52.464;13.480;2024-01-10T03:35:18;-7.80;99.90
9311;DHT22;4694;52.464;13.480;2024-01-10T03:37:45;-7.80;99.90
9311;DHT22;4694;52.464;13.480;2024-01-10T03:40:12;-7.80;99.90
9311;DHT22;4694;52.464;13.480;2024-01-10T03:42:39;-7.80;99.90
9311;DHT22;4694;52.464;13.480;2024-01-10T03:45:06;-7.90;99.90
9311;DHT22;4694;52.464;13.480;2024-01-10T03:47:32;-7.80;99.90
9311;DHT22;4694;52.464;13.480;2024-01-10T03:49:59;-7.80;99.90
9311;DHT22;4694;52.464;13.480;2024-01-10T03:52:27;-7.90;99.90
9311;DHT22;4694;52.464;13.480;2024-01-10T03:54:53;-7.80;99.90
9311;DHT22;4694;52.464;13.480;2024-01-10T03:57:20;-7.90;99.90
9311;DHT22;4694;52.464;13.480;2024-01-10T03:59:47;-7.90;99.90
9311;DHT22;4694;52.464;13.480;2024-01-10T04:02:13;-7.90;99.90
9311;DHT22;4694;52.464;13.480;2024-01-10T04:04:40;-7.90;99.90
9311;DHT22;4694;52.464;13.480;2024-01-10T04:07:07;-7.90;99.90
9311;DHT22;4694;52.464;13.480;2024-01-10T04:09:35;-7.90;99.90
9311;DHT22;4694;52.464;13.480;2024-01-10T04:12:02;-7.90;99.90
9311;DHT22;4694;52.464;13.480;2024-01-10T04:14:28;-7.90;99.90
9311;DHT22;4694;52.464;13.480;2024-01-10T04:16:55;-7.90;99.90
9311;DHT22;4694;52.464;13.480;2024-01-10T04:19:22;-7.90;99.90
9311;DHT22;4694;52.464;13.480;2024-01-10T04:21:49;-7.90;99.90
9311;DHT22;4694;52.464;13.480;2024-01-10T04:24:15;-7.90;99.90
9311;DHT22;4694;52.464;13.480;2024-01-10T04:26:43;-7.90;99.90
9311;DHT22;4694;52.464;13.480;2024-01-10T04:29:10;-7.90;99.90
9311;DHT22;4694;52.464;13.480;2024-01-10T04:31:37;-7.90;99.90
9311;DHT22;4694;52.464;13.480;2024-01-10T04:34:04;-7.90;99.90
9311;DHT22;4694;52.464;13.480;2024-01-10T04:36:31;-7.90;99.90
9311;DHT22;4694;52.464;13.480;2024-01-10T04:38:58;-7.90;99.90
9311;DHT22;4694;52.464;13.480;2024-01-10T04:41:24;-7.90;99.90
9311;DHT22;4694;52.464;13.480;2024-01-10T04:43:52;-7.90;99.90
9311;DHT22;4694;52.464;13.480;2024-01-10T04:46:19;-7.80;99.90
9311;DHT22;4694;52.464;13.480;2024-01-10T04:48:46;-7.90;99.90
9311;DHT22;4694;52.464;13.480;2024-01-10T04:51:13;-7.90;99.90
9311;DHT22;4694;52.464;13.480;2024-01-10T04:53:40;-7.90;99.90
9311;DHT22;4694;52.464;13.480;2024-01-10T04:56:07;-7.90;99.90
9311;DHT22;4694;52.464;13.480;2024-01-10T04:58:33;-7.90;99.90
9311;DHT22;4694;52.464;13.480;2024-01-10T05:01:03;-7.90;99.90
9311;DHT22;4694;52.464;13.480;2024-01-10T05:03:31;-7.90;99.90
9311;DHT22;4694;52.464;13.480;2024-01-10T05:05:58;-7.90;99.90
9311;DHT22;4694;52.464;13.480;2024-01-10T05:08:24;-7.90;99.90
9311;DHT22;4694;52.464;13.480;2024-01-10T05:10:51;-7.90;99.90
9311;DHT22;4694;52.464;13.480;2024-01-10T05:13:18;-7.90;99.90
9311;DHT22;4694;52.464;13.480;2024-01-10T05:15:45;-7.90;99.90
9311;DHT22;4694;52.464;13.480;2024-01-10T05:18:13;-7.90;99.90
9311;DHT22;4694;52.464;13.480;2024-01-10T05:20:40;-7.90;99.90
9311;DHT22;4694;52.464;13.480;2024-01-10T05:23:06;-7.80;99.90
9311;DHT22;4694;52.464;13.480;2024-01-10T05:25:33;-7.90;99.90
9311;DHT22;4694;52.464;13.480;2024-01-10T05:28:00;-7.80;99.90
9311;DHT22;4694;52.464;13.480;2024-01-10T05:30:26;-7.90;99.90
9311;DHT22;4694;52.464;13.480;2024-01-10T05:32:53;-7.80;99.90
9311;DHT22;4694;52.464;13.480;2024-01-10T05:35:21;-7.80;99.90
9311;DHT22;4694;52.464;13.480;2024-01-10T05:37:48;-7.80;99.90
9311;DHT22;4694;52.464;13.480;2024-01-10T05:40:15;-7.80;99.90
9311;DHT22;4694;52.464;13.480;2024-01-10T05:42:42;-7.80;99.90
9311;DHT22;4694;52.464;13.480;2024-01-10T05:45:09;-7.70;99.90
9311;DHT22;4694;52.464;13.480;2024-01-10T05:47:36;-7.80;99.90
9311;DHT22;4694;52.464;13.480;2024-01-10T05:50:03;-7.80;99.90
9311;DHT22;4694;52.464;13.480;2024-01-10T05:52:33;-7.80;99.90
9311;DHT22;4694;52.464;13.480;2024-01-10T05:54:59;-7.80;99.90
9311;DHT22;4694;52.464;13.480;2024-01-10T05:57:27;-7.80;99.90
9311;DHT22;4694;52.464;13.480;2024-01-10T05:59:53;-7.80;99.90
9311;DHT22;4694;52.464;13.480;2024-01-10T06:02:22;-7.90;99.90
9311;DHT22;4694;52.464;13.480;2024-01-10T06:04:49;-7.90;99.90
9311;DHT22;4694;52.464;13.480;2024-01-10T06:07:16;-7.90;99.90
9311;DHT22;4694;52.464;13.480;2024-01-10T06:09:44;-7.90;99.90
9311;DHT22;4694;52.464;13.480;2024-01-10T06:12:10;-7.90;99.90
9311;DHT22;4694;52.464;13.480;2024-01-10T06:14:37;-7.90;99.90
9311;DHT22;4694;52.464;13.480;2024-01-10T06:17:04;-7.80;99.90
9311;DHT22;4694;52.464;13.480;2024-01-10T06:19:31;-7.80;99.90
9311;DHT22;4694;52.464;13.480;2024-01-10T06:21:58;-7.80;99.90
9311;DHT22;4694;52.464;13.480;2024-01-10T06:24:26;-7.90;99.90
9311;DHT22;4694;52.464;13.480;2024-01-10T06:26:54;-7.90;99.90
9311;DHT22;4694;52.464;13.480;2024-01-10T06:29:20;-7.90;99.90
9311;DHT22;4694;52.464;13.480;2024-01-10T06:31:47;-7.80;99.90
9311;DHT22;4694;52.464;13.480;2024-01-10T06:34:14;-7.80;99.90
9311;DHT22;4694;52.464;13.480;2024-01-10T06:36:40;-7.80;99.90
9311;DHT22;4694;52.464;13.480;2024-01-10T06:39:09;-7.90;99.90
9311;DHT22;4694;52.464;13.480;2024-01-10T06:41:38;-7.80;99.90
9311;DHT22;4694;52.464;13.480;2024-01-10T06:44:06;-7.80;99.90
9311;DHT22;4694;52.464;13.480;2024-01-10T06:46:32;-7.80;99.90
9311;DHT22;4694;52.464;13.480;2024-01-10T06:48:59;-7.80;99.90
9311;DHT22;4694;52.464;13.480;2024-01-10T06:51:26;-7.80;99.90
9311;DHT22;4694;52.464;13.480;2024-01-10T06:53:53;-7.70;99.90
9311;DHT22;4694;52.464;13.480;2024-01-10T06:56:26;-7.70;99.90
9311;DHT22;4694;52.464;13.480;2024-01-10T06:58:52;-7.70;99.90
9311;DHT22;4694;52.464;13.480;2024-01-10T07:01:21;-7.70;99.90
9311;DHT22;4694;52.464;13.480;2024-01-10T07:03:49;-7.70;99.90
9311;DHT22;4694;52.464;13.480;2024-01-10T07:06:16;-7.70;99.90
9311;DHT22;4694;52.464;13.480;2024-01-10T07:08:43;-7.70;99.90
9311;DHT22;4694;52.464;13.480;2024-01-10T07:11:11;-7.80;99.90
9311;DHT22;4694;52.464;13.480;2024-01-10T07:13:37;-7.80;99.90
9311;DHT22;4694;52.464;13.480;2024-01-10T07:16:05;-7.80;99.90
9311;DHT22;4694;52.464;13.480;2024-01-10T07:18:33;-7.80;99.90
9311;DHT22;4694;52.464;13.480;2024-01-10T07:20:59;-7.80;99.90
9311;DHT22;4694;52.464;13.480;2024-01-10T07:23:26;-7.80;99.90
9311;DHT22;4694;52.464;13.480;2024-01-10T07:25:53;-7.80;99.90
9311;DHT22;4694;52.464;13.480;2024-01-10T07:28:20;-7.80;99.90
9311;DHT22;4694;52.464;13.480;2024-01-10T07:30:47;-7.80;99.90
9311;DHT22;4694;52.464;13.480;2024-01-10T07:33:14;-7.80;99.90
9311;DHT22;4694;52.464;13.480;2024-01-10T07:35:43;-7.80;99.90
9311;DHT22;4694;52.464;13.480;2024-01-10T07:38:09;-7.80;99.90
9311;DHT22;4694;52.464;13.480;2024-01-10T07:40:36;-7.80;99.90
9311;DHT22;4694;52.464;13.480;2024-01-10T07:43:03;-7.80;99.90
9311;DHT22;4694;52.464;13.480;2024-01-10T07:45:30;-7.80;99.90
9311;DHT22;4694;52.464;13.480;2024-01-10T07:47:58;-7.80;99.90
9311;DHT22;4694;52.464;13.480;2024-01-10T07:50:25;-7.70;99.90
9311;DHT22;4694;52.464;13.480;2024-01-10T07:52:54;-7.70;99.90
9311;DHT22;4694;52.464;13.480;2024-01-10T07:55:22;-7.60;99.90
9311;DHT22;4694;52.464;13.480;2024-01-10T07:57:49;-7.60;99.90
9311;DHT22;4694;52.464;13.480;2024-01-10T08:00:16;-7.60;99.90
9311;DHT22;4694;52.464;13.480;2024-01-10T08:02:45;-7.50;99.90
9311;DHT22;4694;52.464;13.480;2024-01-10T08:05:12;-7.50;99.90
9311;DHT22;4694;52.464;13.480;2024-01-10T08:07:39;-7.50;99.90
9311;DHT22;4694;52.464;13.480;2024-01-10T08:10:08;-7.50;99.90
9311;DHT22;4694;52.464;13.480;2024-01-10T08:12:35;-7.40;99.90
9311;DHT22;4694;52.464;13.480;2024-01-10T08:15:04;-7.30;99.90
9311;DHT22;4694;52.464;13.480;2024-01-10T08:17:31;-7.20;99.90
9311;DHT22;4694;52.464;13.480;2024-01-10T08:19:58;-7.20;99.90
9311;DHT22;4694;52.464;13.480;2024-01-10T08:22:26;-7.10;99.90
9311;DHT22;4694;52.464;13.480;2024-01-10T08:24:52;-7.00;99.90
9311;DHT22;4694;52.464;13.480;2024-01-10T08:27:20;-7.00;99.90
9311;DHT22;4694;52.464;13.480;2024-01-10T08:29:47;-7.00;99.90
9311;DHT22;4694;52.464;13.480;2024-01-10T08:32:13;-6.90;99.90
9311;DHT22;4694;52.464;13.480;2024-01-10T08:34:42;-6.90;99.90
9311;DHT22;4694;52.464;13.480;2024-01-10T08:37:10;-6.80;99.90
9311;DHT22;4694;52.464;13.480;2024-01-10T08:39:37;-6.80;99.90
9311;DHT22;4694;52.464;13.480;2024-01-10T08:42:04;-6.70;99.90
9311;DHT22;4694;52.464;13.480;2024-01-10T08:44:32;-6.70;99.90
9311;DHT22;4694;52.464;13.480;2024-01-10T08:46:59;-6.50;99.90
9311;DHT22;4694;52.464;13.480;2024-01-10T08:49:25;-6.40;99.90
9311;DHT22;4694;52.464;13.480;2024-01-10T08:51:52;-6.20;99.90
9311;DHT22;4694;52.464;13.480;2024-01-10T08:54:19;-6.00;99.90
9311;DHT22;4694;52.464;13.480;2024-01-10T08:56:48;-5.40;99.90
9311;DHT22;4694;52.464;13.480;2024-01-10T08:59:14;-4.60;99.90
9311;DHT22;4694;52.464;13.480;2024-01-10T09:01:42;-4.10;99.90
9311;DHT22;4694;52.464;13.480;2024-01-10T09:04:09;-3.50;99.90
9311;DHT22;4694;52.464;13.480;2024-01-10T09:06:35;-2.90;99.90
9311;DHT22;4694;52.464;13.480;2024-01-10T09:09:03;-2.60;99.90
9311;DHT22;4694;52.464;13.480;2024-01-10T09:11:30;-2.60;99.90
9311;DHT22;4694;52.464;13.480;2024-01-10T09:13:57;-2.80;99.90
9311;DHT22;4694;52.464;13.480;2024-01-10T09:16:24;-3.10;99.90
9311;DHT22;4694;52.464;13.480;2024-01-10T09:18:53;-3.40;99.90
9311;DHT22;4694;52.464;13.480;2024-01-10T09:21:22;-3.70;99.90
9311;DHT22;4694;52.464;13.480;2024-01-10T09:23:49;-3.90;99.90
9311;DHT22;4694;52.464;13.480;2024-01-10T09:26:17;-4.10;99.90
9311;DHT22;4694;52.464;13.480;2024-01-10T09:28:44;-4.20;99.90
9311;DHT22;4694;52.464;13.480;2024-01-10T09:31:10;-4.30;99.90
9311;DHT22;4694;52.464;13.480;2024-01-10T09:33:37;-3.80;99.90
9311;DHT22;4694;52.464;13.480;2024-01-10T09:36:05;-2.70;99.90
9311;DHT22;4694;52.464;13.480;2024-01-10T09:38:35;-1.60;99.90
9311;DHT22;4694;52.464;13.480;2024-01-10T09:41:03;-0.70;99.90
9311;DHT22;4694;52.464;13.480;2024-01-10T09:43:30;-0.40;99.90
9311;DHT22;4694;52.464;13.480;2024-01-10T09:45:59;0.00;99.90
9311;DHT22;4694;52.464;13.480;2024-01-10T09:48:26;0.30;99.90
9311;DHT22;4694;52.464;13.480;2024-01-10T09:50:53;0.60;99.90
9311;DHT22;4694;52.464;13.480;2024-01-10T09:53:22;1.20;99.90
9311;DHT22;4694;52.464;13.480;2024-01-10T09:55:50;2.00;99.90
9311;DHT22;4694;52.464;13.480;2024-01-10T09:58:16;2.80;99.10
9311;DHT22;4694;52.464;13.480;2024-01-10T10:00:44;3.40;97.20
9311;DHT22;4694;52.464;13.480;2024-01-10T10:03:11;3.70;95.30
9311;DHT22;4694;52.464;13.480;2024-01-10T10:05:38;3.60;94.50
9311;DHT22;4694;52.464;13.480;2024-01-10T10:08:08;3.60;93.50
9311;DHT22;4694;52.464;13.480;2024-01-10T10:10:36;3.40;92.90
9311;DHT22;4694;52.464;13.480;2024-01-10T10:13:09;3.00;92.90
9311;DHT22;4694;52.464;13.480;2024-01-10T10:15:37;2.40;92.70
9311;DHT22;4694;52.464;13.480;2024-01-10T10:18:05;1.80;93.70
9311;DHT22;4694;52.464;13.480;2024-01-10T10:20:31;1.20;94.10
9311;DHT22;4694;52.464;13.480;2024-01-10T10:23:01;0.60;94.70
9311;DHT22;4694;52.464;13.480;2024-01-10T10:25:33;0.00;95.40
9311;DHT22;4694;52.464;13.480;2024-01-10T10:28:02;-0.40;96.10
9311;DHT22;4694;52.464;13.480;2024-01-10T10:30:31;-0.70;97.00
9311;DHT22;4694;52.464;13.480;2024-01-10T10:32:58;-1.00;97.60
9311;DHT22;4694;52.464;13.480;2024-01-10T10:35:25;-1.20;97.90
9311;DHT22;4694;52.464;13.480;2024-01-10T10:37:53;-1.40;98.20
9311;DHT22;4694;52.464;13.480;2024-01-10T10:40:20;-1.60;98.90
9311;DHT22;4694;52.464;13.480;2024-01-10T10:42:48;-1.70;99.50
9311;DHT22;4694;52.464;13.480;2024-01-10T10:45:17;-1.80;99.90
9311;DHT22;4694;52.464;13.480;2024-01-10T10:47:46;-1.90;99.90
9311;DHT22;4694;52.464;13.480;2024-01-10T10:50:21;-2.00;99.90
9311;DHT22;4694;52.464;13.480;2024-01-10T10:52:50;-1.90;99.90
9311;DHT22;4694;52.464;13.480;2024-01-10T10:55:18;-1.90;99.90
9311;DHT22;4694;52.464;13.480;2024-01-10T10:57:45;-2.00;99.90
9311;DHT22;4694;52.464;13.480;2024-01-10T11:00:13;-2.00;99.90
9311;DHT22;4694;52.464;13.480;2024-01-10T11:02:43;-2.00;99.90
9311;DHT22;4694;52.464;13.480;2024-01-10T11:05:11;-1.90;99.90
9311;DHT22;4694;52.464;13.480;2024-01-10T11:07:38;-2.00;99.90
9311;DHT22;4694;52.464;13.480;2024-01-10T11:10:08;-2.00;99.90
9311;DHT22;4694;52.464;13.480;2024-01-10T11:12:59;-2.00;99.90
9311;DHT22;4694;52.464;13.480;2024-01-10T11:15:43;-2.00;99.90
9311;DHT22;4694;52.464;13.480;2024-01-10T11:18:28;-2.00;99.90
9311;DHT22;4694;52.464;13.480;2024-01-10T11:21:05;-2.00;99.90
9311;DHT22;4694;52.464;13.480;2024-01-10T11:23:42;-2.00;99.90
9311;DHT22;4694;52.464;13.480;2024-01-10T11:26:11;-2.00;99.90
9311;DHT22;4694;52.464;13.480;2024-01-10T11:28:40;-2.00;99.90
9311;DHT22;4694;52.464;13.480;2024-01-10T11:31:09;-1.90;99.90
9311;DHT22;4694;52.464;13.480;2024-01-10T11:33:39;-1.90;99.90
9311;DHT22;4694;52.464;13.480;2024-01-10T11:36:11;-1.80;99.90
9311;DHT22;4694;52.464;13.480;2024-01-10T11:38:42;-1.70;99.90
9311;DHT22;4694;52.464;13.480;2024-01-10T11:41:19;-1.60;99.90
9311;DHT22;4694;52.464;13.480;2024-01-10T11:43:47;-1.60;99.90
9311;DHT22;4694;52.464;13.480;2024-01-10T11:46:34;-1.50;99.90
9311;DHT22;4694;52.464;13.480;2024-01-10T11:49:02;-1.50;99.90
9311;DHT22;4694;52.464;13.480;2024-01-10T11:51:30;-1.40;99.90
9311;DHT22;4694;52.464;13.480;2024-01-10T11:53:57;-1.40;99.90
9311;DHT22;4694;52.464;13.480;2024-01-10T11:56:37;-1.30;99.90
9311;DHT22;4694;52.464;13.480;2024-01-10T11:59:06;-1.30;99.90
9311;DHT22;4694;52.464;13.480;2024-01-10T12:01:36;-1.20;99.90
9311;DHT22;4694;52.464;13.480;2024-01-10T12:04:04;-1.20;99.90
9311;DHT22;4694;52.464;13.480;2024-01-10T12:06:32;-1.10;99.90
9311;DHT22;4694;52.464;13.480;2024-01-10T12:09:00;-1.00;99.90
9311;DHT22;4694;52.464;13.480;2024-01-10T12:11:33;-0.90;99.90
9311;DHT22;4694;52.464;13.480;2024-01-10T12:14:00;-0.90;99.80
9311;DHT22;4694;52.464;13.480;2024-01-10T12:16:28;-0.90;99.80
9311;DHT22;4694;52.464;13.480;2024-01-10T12:18:54;-1.00;99.70
9311;DHT22;4694;52.464;13.480;2024-01-10T12:21:22;-0.90;99.90
9311;DHT22;4694;52.464;13.480;2024-01-10T12:23:50;-0.90;99.70
9311;DHT22;4694;52.464;13.480;2024-01-10T12:26:18;-0.90;99.40
9311;DHT22;4694;52.464;13.480;2024-01-10T12:28:53;-0.80;99.20
9311;DHT22;4694;52.464;13.480;2024-01-10T12:31:21;-0.80;99.10
9311;DHT22;4694;52.464;13.480;2024-01-10T12:33:50;-0.80;99.00
9311;DHT22;4694;52.464;13.480;2024-01-10T12:36:20;-0.80;99.00
9311;DHT22;4694;52.464;13.480;2024-01-10T12:38:50;-0.70;98.80
9311;DHT22;4694;52.464;13.480;2024-01-10T12:41:20;-0.70;98.50
9311;DHT22;4694;52.464;13.480;2024-01-10T12:44:13;-0.60;98.50
9311;DHT22;4694;52.464;13.480;2024-01-10T12:46:50;-0.60;98.50
9311;DHT22;4694;52.464;13.480;2024-01-10T12:49:23;-0.60;98.30
9311;DHT22;4694;52.464;13.480;2024-01-10T12:51:55;-0.60;98.10
9311;DHT22;4694;52.464;13.480;2024-01-10T12:54:27;-0.50;97.80
9311;DHT22;4694;52.464;13.480;2024-01-10T12:57:05;-0.50;97.40
9311;DHT22;4694;52.464;13.480;2024-01-10T12:59:54;-0.40;97.50
9311;DHT22;4694;52.464;13.480;2024-01-10T13:02:21;-0.50;96.30
9311;DHT22;4694;52.464;13.480;2024-01-10T13:04:48;-0.50;96.00
9311;DHT22;4694;52.464;13.480;2024-01-10T13:07:15;-0.50;95.80
9311;DHT22;4694;52.464;13.480;2024-01-10T13:09:45;-0.50;95.40
9311;DHT22;4694;52.464;13.480;2024-01-10T13:12:12;-0.50;95.00
9311;DHT22;4694;52.464;13.480;2024-01-10T13:19:07;-0.50;95.20
9311;DHT22;4694;52.464;13.480;2024-01-10T13:21:26;-0.50;95.40
9311;DHT22;4694;52.464;13.480;2024-01-10T13:24:01;-0.40;95.60
9311;DHT22;4694;52.464;13.480;2024-01-10T13:26:30;-0.40;95.60
9311;DHT22;4694;52.464;13.480;2024-01-10T13:28:57;-0.30;95.60
9311;DHT22;4694;52.464;13.480;2024-01-10T13:31:27;-0.40;95.30
9311;DHT22;4694;52.464;13.480;2024-01-10T13:34:04;-0.40;95.30
9311;DHT22;4694;52.464;13.480;2024-01-10T13:36:31;-0.40;95.30
9311;DHT22;4694;52.464;13.480;2024-01-10T13:38:58;-0.30;95.10
9311;DHT22;4694;52.464;13.480;2024-01-10T13:41:24;-0.40;95.00
9311;DHT22;4694;52.464;13.480;2024-01-10T13:43:52;-0.40;94.90
9311;DHT22;4694;52.464;13.480;2024-01-10T13:46:20;-0.40;95.00
9311;DHT22;4694;52.464;13.480;2024-01-10T13:48:47;-0.30;95.30
9311;DHT22;4694;52.464;13.480;2024-01-10T13:51:14;-0.30;95.40
9311;DHT22;4694;52.464;13.480;2024-01-10T13:53:41;-0.30;95.70
9311;DHT22;4694;52.464;13.480;2024-01-10T13:56:08;-0.30;95.90
9311;DHT22;4694;52.464;13.480;2024-01-10T13:58:37;-0.30;95.90
9311;DHT22;4694;52.464;13.480;2024-01-10T14:01:05;-0.30;96.00
9311;DHT22;4694;52.464;13.480;2024-01-10T14:03:32;-0.20;96.30
9311;DHT22;4694;52.464;13.480;2024-01-10T14:05:59;-0.20;96.50
9311;DHT22;4694;52.464;13.480;2024-01-10T14:08:26;-0.20;96.70
9311;DHT22;4694;52.464;13.480;2024-01-10T14:10:52;-0.20;97.00
9311;DHT22;4694;52.464;13.480;2024-01-10T14:13:19;-0.20;97.20
9311;DHT22;4694;52.464;13.480;2024-01-10T14:15:46;-0.30;97.40
9311;DHT22;4694;52.464;13.480;2024-01-10T14:18:14;-0.20;97.60
9311;DHT22;4694;52.464;13.480;2024-01-10T14:20:40;-0.20;97.60
9311;DHT22;4694;52.464;13.480;2024-01-10T14:23:07;-0.30;97.70
9311;DHT22;4694;52.464;13.480;2024-01-10T14:25:34;-0.30;97.80
9311;DHT22;4694;52.464;13.480;2024-01-10T14:28:01;-0.30;98.00
9311;DHT22;4694;52.464;13.480;2024-01-10T14:30:28;-0.40;98.10
9311;DHT22;4694;52.464;13.480;2024-01-10T14:32:55;-0.40;98.30
9311;DHT22;4694;52.464;13.480;2024-01-10T14:35:23;-0.40;98.50
9311;DHT22;4694;52.464;13.480;2024-01-10T14:37:50;-0.50;98.60
9311;DHT22;4694;52.464;13.480;2024-01-10T14:40:16;-0.50;98.70
9311;DHT22;4694;52.464;13.480;2024-01-10T14:42:43;-0.50;98.80
9311;DHT22;4694;52.464;13.480;2024-01-10T14:45:11;-0.50;98.80
9311;DHT22;4694;52.464;13.480;2024-01-10T14:47:37;-0.60;98.90
9311;DHT22;4694;52.464;13.480;2024-01-10T14:50:05;-0.60;99.10
9311;DHT22;4694;52.464;13.480;2024-01-10T14:52:33;-0.70;99.20
9311;DHT22;4694;52.464;13.480;2024-01-10T14:55:00;-0.80;99.40
9311;DHT22;4694;52.464;13.480;2024-01-10T14:57:26;-0.80;99.60
9311;DHT22;4694;52.464;13.480;2024-01-10T14:59:53;-0.90;99.60
9311;DHT22;4694;52.464;13.480;2024-01-10T15:02:20;-1.00;99.70
9311;DHT22;4694;52.464;13.480;2024-01-10T15:04:48;-1.10;99.70
9311;DHT22;4694;52.464;13.480;2024-01-10T15:07:14;-1.10;99.90
9311;DHT22;4694;52.464;13.480;2024-01-10T15:09:43;-1.20;99.90
9311;DHT22;4694;52.464;13.480;2024-01-10T15:12:10;-1.30;99.90
9311;DHT22;4694;52.464;13.480;2024-01-10T15:14:38;-1.40;99.90
9311;DHT22;4694;52.464;13.480;2024-01-10T15:17:05;-1.40;99.90
9311;DHT22;4694;52.464;13.480;2024-01-10T15:19:33;-1.40;99.90
9311;DHT22;4694;52.464;13.480;2024-01-10T15:22:00;-1.60;99.90
9311;DHT22;4694;52.464;13.480;2024-01-10T15:24:27;-1.60;99.90
9311;DHT22;4694;52.464;13.480;2024-01-10T15:26:56;-1.70;99.90
9311;DHT22;4694;52.464;13.480;2024-01-10T15:29:27;-1.80;99.90
9311;DHT22;4694;52.464;13.480;2024-01-10T15:31:53;-1.90;99.90
9311;DHT22;4694;52.464;13.480;2024-01-10T15:34:20;-1.90;99.90
9311;DHT22;4694;52.464;13.480;2024-01-10T15:36:46;-2.00;99.90
9311;DHT22;4694;52.464;13.480;2024-01-10T15:39:13;-2.00;99.90
9311;DHT22;4694;52.464;13.480;2024-01-10T15:41:40;-2.00;99.90
9311;DHT22;4694;52.464;13.480;2024-01-10T15:44:08;-2.10;99.90
9311;DHT22;4694;52.464;13.480;2024-01-10T15:46:35;-2.10;99.90
9311;DHT22;4694;52.464;13.480;2024-01-10T15:49:01;-2.20;99.90
9311;DHT22;4694;52.464;13.480;2024-01-10T15:51:28;-2.20;99.90
9311;DHT22;4694;52.464;13.480;2024-01-10T15:53:55;-2.30;99.90
9311;DHT22;4694;52.464;13.480;2024-01-10T15:56:23;-2.40;99.90